createdAt,value
2018-11-21T00:00:49.388Z,-1.70
2018-11-21T00:03:31.229Z,-1.60
2018-11-21T00:06:00.521Z,-1.60
2018-11-21T00:08:49.084Z,-1.60
2018-11-21T00:11:30.403Z,-1.60
2018-11-21T00:14:11.764Z,-1.60
2018-11-21T00:16:53.466Z,-1.50
2018-11-21T00:19:34.631Z,-1.50
2018-11-21T00:22:03.932Z,-1.30
2018-11-21T00:24:52.505Z,-1.30
2018-11-21T00:27:21.782Z,-1.30
2018-11-21T00:29:51.082Z,-1.20
2018-11-21T00:32:32.425Z,-1.10
2018-11-21T00:35:14.273Z,-1.00
2018-11-21T00:37:56.149Z,-1.00
2018-11-21T00:40:37.481Z,-1.00
2018-11-21T00:43:19.420Z,-1.10
2018-11-21T00:46:01.234Z,-1.20
2018-11-21T00:48:30.553Z,-1.20
2018-11-21T00:50:59.803Z,-1.20
2018-11-21T00:53:41.054Z,-1.20
2018-11-21T00:56:10.328Z,-1.30
2018-11-21T00:58:39.611Z,-1.50
2018-11-21T01:01:21.472Z,-1.60
2018-11-21T01:04:03.725Z,-1.60
2018-11-21T01:06:46.106Z,-1.50
2018-11-21T01:09:15.393Z,-1.50
2018-11-21T01:12:03.962Z,-1.40
2018-11-21T01:14:45.581Z,-1.30
2018-11-21T01:17:27.347Z,-1.30
2018-11-21T01:20:12.048Z,-1.40
2018-11-21T01:22:53.587Z,-1.50
2018-11-21T01:25:35.097Z,-1.60
2018-11-21T01:28:16.587Z,-1.60
2018-11-21T01:30:58.241Z,-1.60
2018-11-21T01:33:39.452Z,-1.60
2018-11-21T01:36:21.205Z,-1.50
2018-11-21T01:39:02.735Z,-1.50
2018-11-21T01:41:44.292Z,-1.40
2018-11-21T01:44:25.611Z,-1.40
2018-11-21T01:47:06.644Z,-1.30
2018-11-21T01:49:48.362Z,-1.20
2018-11-21T01:52:30.143Z,-1.20
2018-11-21T01:55:11.170Z,-1.10
2018-11-21T02:01:10.091Z,-1.00
2018-11-21T02:03:58.658Z,-1.00
2018-11-21T02:06:43.151Z,-1.00
2018-11-21T02:09:24.213Z,-0.90
2018-11-21T02:12:06.250Z,-0.90
2018-11-21T02:20:14.287Z,-0.90
2018-11-21T02:22:55.926Z,-1.00
2018-11-21T02:25:37.221Z,-1.00
2018-11-21T02:28:18.805Z,-1.00
2018-11-21T02:31:00.910Z,-1.00
2018-11-21T02:33:42.085Z,-1.00
2018-11-21T02:36:23.485Z,-1.00
2018-11-21T02:39:05.174Z,-1.10
2018-11-21T02:42:05.953Z,-1.00
2018-11-21T02:44:46.876Z,-1.00
2018-11-21T02:47:28.376Z,-1.00
2018-11-21T02:49:57.693Z,-0.90
2018-11-21T02:52:46.293Z,-0.90
2018-11-21T02:55:27.879Z,-0.90
2018-11-21T02:58:09.410Z,-0.90
2018-11-21T03:00:50.956Z,-0.80
2018-11-21T03:03:32.577Z,-0.70
2018-11-21T03:06:01.844Z,-0.70
2018-11-21T03:08:50.436Z,-0.60
2018-11-21T03:11:31.557Z,-0.50
2018-11-21T03:14:13.022Z,-0.50
2018-11-21T03:16:54.628Z,-0.50
2018-11-21T03:19:36.484Z,-0.50
2018-11-21T03:22:18.072Z,-0.40
2018-11-21T03:24:59.606Z,-0.40
2018-11-21T03:27:41.224Z,-0.40
2018-11-21T03:30:22.886Z,-0.40
2018-11-21T03:33:04.346Z,-0.40
2018-11-21T03:35:45.646Z,-0.30
2018-11-21T03:38:26.763Z,-0.30
2018-11-21T03:41:08.128Z,-0.30
2018-11-21T03:43:49.589Z,-0.30
2018-11-21T03:46:18.889Z,-0.30
2018-11-21T03:49:07.488Z,-0.20
2018-11-21T03:51:49.078Z,-0.30
2018-11-21T03:54:18.388Z,-0.30
2018-11-21T03:57:06.961Z,-0.20
2018-11-21T03:59:48.177Z,-0.20
2018-11-21T04:02:29.767Z,-0.20
2018-11-21T04:04:59.049Z,-0.20
2018-11-21T04:07:47.634Z,-0.20
2018-11-21T04:10:30.530Z,-0.20
2018-11-21T04:12:59.796Z,-0.10
2018-11-21T04:15:48.384Z,-0.10
2018-11-21T04:18:17.652Z,-0.10
2018-11-21T04:21:06.286Z,-0.10
2018-11-21T04:23:47.275Z,0.00
2018-11-21T04:26:28.703Z,0.00
2018-11-21T04:28:57.951Z,0.00
2018-11-21T04:31:46.553Z,0.00
2018-11-21T04:34:28.400Z,0.10
2018-11-21T04:37:10.079Z,0.10
2018-11-21T04:39:51.945Z,0.10
2018-11-21T04:42:33.534Z,0.10
2018-11-21T04:45:02.823Z,0.10
2018-11-21T04:47:51.441Z,0.10
2018-11-21T04:50:33.106Z,0.10
2018-11-21T04:53:02.380Z,0.10
2018-11-21T04:55:31.777Z,0.20
2018-11-21T04:58:13.171Z,0.10
2018-11-21T05:00:54.629Z,0.10
2018-11-21T05:03:35.978Z,0.20
2018-11-21T05:06:17.561Z,0.10
2018-11-21T05:08:58.983Z,0.10
2018-11-21T05:11:28.315Z,0.20
2018-11-21T05:14:16.877Z,0.10
2018-11-21T05:16:58.741Z,0.20
2018-11-21T05:19:40.519Z,0.20
2018-11-21T05:22:09.808Z,0.20
2018-11-21T05:24:58.393Z,0.20
2018-11-21T05:27:39.788Z,0.20
2018-11-21T05:30:21.446Z,0.20
2018-11-21T05:33:06.227Z,0.30
2018-11-21T05:35:47.612Z,0.20
2018-11-21T05:38:29.363Z,0.30
2018-11-21T05:40:58.655Z,0.30
2018-11-21T05:43:47.264Z,0.30
2018-11-21T05:46:28.803Z,0.20
2018-11-21T05:49:10.018Z,0.30
2018-11-21T05:51:39.297Z,0.30
2018-11-21T05:54:27.921Z,0.30
2018-11-21T05:57:09.264Z,0.30
2018-11-21T05:59:50.343Z,0.30
2018-11-21T06:02:19.677Z,0.30
2018-11-21T06:05:08.706Z,0.30
2018-11-21T06:07:49.770Z,0.30
2018-11-21T06:10:31.221Z,0.30
2018-11-21T06:13:00.547Z,0.30
2018-11-21T06:15:29.809Z,0.40
2018-11-21T06:17:59.101Z,0.40
2018-11-21T06:20:47.697Z,0.50
2018-11-21T06:23:36.303Z,0.40
2018-11-21T06:26:17.489Z,0.50
2018-11-21T06:28:59.244Z,0.40
2018-11-21T06:31:40.936Z,0.50
2018-11-21T06:34:22.748Z,0.50
2018-11-21T06:37:04.042Z,0.50
2018-11-21T06:39:45.411Z,0.50
2018-11-21T06:42:26.621Z,0.50
2018-11-21T06:44:56.029Z,0.60
2018-11-21T06:47:44.592Z,0.60
2018-11-21T06:50:26.365Z,0.60
2018-11-21T06:53:07.609Z,0.60
2018-11-21T06:55:49.435Z,0.60
2018-11-21T06:58:18.695Z,0.70
2018-11-21T07:01:07.290Z,0.70
2018-11-21T07:03:48.698Z,0.60
2018-11-21T07:06:30.015Z,0.70
2018-11-21T07:08:59.331Z,0.70
2018-11-21T07:15:06.338Z,0.80
2018-11-21T07:17:35.641Z,0.80
2018-11-21T07:20:24.242Z,0.80
2018-11-21T07:23:05.625Z,0.80
2018-11-21T07:25:46.906Z,0.80
2018-11-21T07:28:28.263Z,0.80
2018-11-21T07:31:10.105Z,0.80
2018-11-21T07:33:51.826Z,0.90
2018-11-21T07:36:34.613Z,0.90
2018-11-21T07:39:16.044Z,1.00
2018-11-21T07:41:57.587Z,1.00
2018-11-21T07:44:38.745Z,1.00
2018-11-21T07:47:19.991Z,1.00
2018-11-21T07:50:01.815Z,1.00
2018-11-21T07:52:43.246Z,0.90
2018-11-21T07:55:24.477Z,1.00
2018-11-21T07:58:08.998Z,1.00
2018-11-21T08:01:21.160Z,1.00
2018-11-21T08:03:57.999Z,1.00
2018-11-21T08:06:42.560Z,1.00
2018-11-21T08:09:33.784Z,1.00
2018-11-21T08:12:20.382Z,1.00
2018-11-21T08:15:19.375Z,1.10
2018-11-21T08:18:08.763Z,1.10
2018-11-21T08:21:05.761Z,1.00
2018-11-21T08:23:55.694Z,1.00
2018-11-21T08:26:41.008Z,1.00
2018-11-21T08:29:10.440Z,1.10
2018-11-21T08:31:39.695Z,1.20
2018-11-21T08:34:08.981Z,1.20
2018-11-21T08:36:38.241Z,1.20
2018-11-21T08:39:09.271Z,1.30
2018-11-21T08:41:38.571Z,1.30
2018-11-21T08:44:08.013Z,1.30
2018-11-21T08:46:37.274Z,1.30
2018-11-21T08:49:06.578Z,1.30
2018-11-21T08:51:35.818Z,1.30
2018-11-21T08:54:05.355Z,1.30
2018-11-21T08:56:34.675Z,1.30
2018-11-21T08:59:03.961Z,1.30
2018-11-21T09:01:33.215Z,1.40
2018-11-21T09:04:02.472Z,1.40
2018-11-21T09:06:31.749Z,1.40
2018-11-21T09:09:00.991Z,1.40
2018-11-21T09:11:30.276Z,1.40
2018-11-21T09:13:59.903Z,1.40
2018-11-21T09:16:29.167Z,1.40
2018-11-21T09:18:58.435Z,1.40
2018-11-21T09:21:27.706Z,1.40
2018-11-21T09:23:56.981Z,1.40
2018-11-21T09:26:26.278Z,1.40
2018-11-21T09:28:55.617Z,1.40
2018-11-21T09:31:24.896Z,1.50
2018-11-21T09:33:54.149Z,1.50
2018-11-21T09:36:23.422Z,1.50
2018-11-21T09:38:52.726Z,1.50
2018-11-21T09:41:22.009Z,1.60
2018-11-21T09:43:51.300Z,1.50
2018-11-21T09:46:20.583Z,1.60
2018-11-21T09:48:49.840Z,1.50
2018-11-21T09:51:19.117Z,1.50
2018-11-21T09:53:48.372Z,1.60
2018-11-21T09:56:17.664Z,1.50
2018-11-21T09:58:46.932Z,1.50
2018-11-21T10:01:52.034Z,1.50
2018-11-21T10:04:21.316Z,1.60
2018-11-21T10:06:50.838Z,1.60
2018-11-21T10:09:25.106Z,1.70
2018-11-21T10:11:54.366Z,1.70
2018-11-21T10:14:23.620Z,1.70
2018-11-21T10:16:53.094Z,1.90
2018-11-21T10:19:22.389Z,1.90
2018-11-21T10:21:51.664Z,1.90
2018-11-21T10:24:20.924Z,1.90
2018-11-21T10:26:50.236Z,1.80
2018-11-21T10:29:19.496Z,1.80
2018-11-21T10:31:48.792Z,1.80
2018-11-21T10:34:18.048Z,1.90
2018-11-21T10:36:47.414Z,1.90
2018-11-21T10:39:16.705Z,2.00
2018-11-21T10:41:46.029Z,2.00
2018-11-21T10:44:15.343Z,2.00
2018-11-21T10:46:44.625Z,2.00
2018-11-21T10:49:13.890Z,2.00
2018-11-21T10:51:43.140Z,2.00
2018-11-21T10:54:12.438Z,2.10
2018-11-21T10:56:42.130Z,2.20
2018-11-21T10:59:11.395Z,2.20
2018-11-21T11:01:58.207Z,2.30
2018-11-21T11:04:34.141Z,2.30
2018-11-21T11:07:20.510Z,2.30
2018-11-21T11:10:07.154Z,2.20
2018-11-21T11:13:04.102Z,2.30
2018-11-21T11:15:51.106Z,2.30
2018-11-21T11:18:37.930Z,2.40
2018-11-21T11:21:24.755Z,2.40
2018-11-21T11:24:11.588Z,2.40
2018-11-21T11:26:58.443Z,2.40
2018-11-21T11:29:45.397Z,2.40
2018-11-21T11:32:28.494Z,2.30
2018-11-21T11:35:22.754Z,2.40
2018-11-21T11:38:09.634Z,2.50
2018-11-21T11:40:56.593Z,2.60
2018-11-21T11:43:43.585Z,2.60
2018-11-21T11:46:37.696Z,2.80
2018-11-21T11:49:24.269Z,2.80
2018-11-21T11:52:15.666Z,2.90
2018-11-21T11:55:12.611Z,2.90
2018-11-21T11:58:03.742Z,2.90
2018-11-21T12:00:53.658Z,2.90
2018-11-21T12:03:47.552Z,2.80
2018-11-21T12:06:50.729Z,2.80
2018-11-21T12:09:37.611Z,2.90
2018-11-21T12:12:24.310Z,2.90
2018-11-21T12:15:11.152Z,2.90
2018-11-21T12:17:57.754Z,2.80
2018-11-21T12:20:44.766Z,2.90
2018-11-21T12:23:35.966Z,2.90
2018-11-21T12:26:42.553Z,2.90
2018-11-21T12:29:34.729Z,2.90
2018-11-21T12:32:20.684Z,2.90
2018-11-21T12:35:07.250Z,2.90
2018-11-21T12:37:55.646Z,2.90
2018-11-21T12:40:42.207Z,2.90
2018-11-21T12:43:28.557Z,2.90
2018-11-21T12:46:35.132Z,2.90
2018-11-21T12:49:23.514Z,3.00
2018-11-21T12:52:23.666Z,2.90
2018-11-21T12:55:10.421Z,2.90
2018-11-21T12:57:58.850Z,2.90
2018-11-21T13:00:56.455Z,2.90
2018-11-21T13:03:53.597Z,2.90
2018-11-21T13:06:37.030Z,2.90
2018-11-21T13:09:27.004Z,2.90
2018-11-21T13:12:24.468Z,2.70
2018-11-21T13:15:11.383Z,2.70
2018-11-21T13:18:08.528Z,2.90
2018-11-21T13:20:55.580Z,2.80
2018-11-21T13:23:42.385Z,2.80
2018-11-21T13:26:29.158Z,2.80
2018-11-21T13:29:17.148Z,2.80
2018-11-21T13:31:57.237Z,2.80
2018-11-21T13:34:45.639Z,2.80
2018-11-21T13:37:43.292Z,2.80
2018-11-21T13:40:34.428Z,2.80
2018-11-21T13:43:21.098Z,2.80
2018-11-21T13:46:21.630Z,2.70
2018-11-21T13:49:09.488Z,2.70
2018-11-21T13:52:09.913Z,2.60
2018-11-21T13:54:56.486Z,2.60
2018-11-21T13:57:25.798Z,2.60
2018-11-21T13:59:55.262Z,2.60
2018-11-21T14:02:24.536Z,2.60
2018-11-21T14:04:53.838Z,2.60
2018-11-21T14:07:23.120Z,2.60
2018-11-21T14:09:52.403Z,2.70
2018-11-21T14:12:21.692Z,2.70
2018-11-21T14:14:50.966Z,2.60
2018-11-21T14:17:27.388Z,2.60
2018-11-21T14:19:49.558Z,2.70
2018-11-21T14:22:18.808Z,2.70
2018-11-21T14:24:48.108Z,2.70
2018-11-21T14:27:17.360Z,2.70
2018-11-21T14:29:46.758Z,2.70
2018-11-21T14:32:16.001Z,2.60
2018-11-21T14:34:45.275Z,2.60
2018-11-21T14:37:14.643Z,2.50
2018-11-21T14:39:43.927Z,2.60
2018-11-21T14:42:13.188Z,2.60
2018-11-21T14:44:42.514Z,2.50
2018-11-21T14:47:13.994Z,2.60
2018-11-21T14:49:44.586Z,2.50
2018-11-21T14:52:13.882Z,2.60
2018-11-21T14:54:43.145Z,2.60
2018-11-21T14:57:12.566Z,2.60
2018-11-21T14:59:41.846Z,2.60
2018-11-21T15:02:11.150Z,2.50
2018-11-21T15:04:40.409Z,2.60
2018-11-21T15:07:09.700Z,2.60
2018-11-21T15:09:38.960Z,2.50
2018-11-21T15:12:08.265Z,2.50
2018-11-21T15:14:37.530Z,2.60
2018-11-21T15:17:06.836Z,2.60
2018-11-21T15:19:36.097Z,2.50
2018-11-21T15:22:05.437Z,2.60
2018-11-21T15:24:34.692Z,2.60
2018-11-21T15:27:04.169Z,2.60
2018-11-21T15:29:33.451Z,2.60
2018-11-21T15:32:02.752Z,2.60
2018-11-21T15:34:32.018Z,2.70
2018-11-21T15:37:01.319Z,2.60
2018-11-21T15:39:30.630Z,2.50
2018-11-21T15:41:59.892Z,2.40
2018-11-21T15:44:29.222Z,2.50
2018-11-21T15:46:58.511Z,2.60
2018-11-21T15:49:27.799Z,2.60
2018-11-21T15:52:01.558Z,2.50
2018-11-21T15:54:26.353Z,2.60
2018-11-21T15:56:55.616Z,2.60
2018-11-21T15:59:24.889Z,2.50
2018-11-21T16:01:54.232Z,2.50
2018-11-21T16:04:23.519Z,2.40
2018-11-21T16:06:52.744Z,2.30
2018-11-21T16:09:22.017Z,2.30
2018-11-21T16:11:51.278Z,2.30
2018-11-21T16:14:20.553Z,2.40
2018-11-21T16:16:49.823Z,2.50
2018-11-21T16:19:19.109Z,2.30
2018-11-21T16:21:48.386Z,2.30
2018-11-21T16:24:18.042Z,2.30
2018-11-21T16:26:47.314Z,2.30
2018-11-21T16:29:16.588Z,2.30
2018-11-21T16:31:45.841Z,2.30
2018-11-21T16:34:15.119Z,2.30
2018-11-21T16:36:44.418Z,2.20
2018-11-21T16:39:14.233Z,2.20
2018-11-21T16:41:43.506Z,2.10
2018-11-21T16:44:12.870Z,2.10
2018-11-21T16:46:42.151Z,2.10
2018-11-21T16:49:11.492Z,2.10
2018-11-21T16:51:40.755Z,2.10
2018-11-21T16:54:10.057Z,2.20
2018-11-21T16:56:39.348Z,2.20
2018-11-21T16:59:08.653Z,2.10
2018-11-21T17:01:38.129Z,2.10
2018-11-21T17:04:07.446Z,2.10
2018-11-21T17:06:36.714Z,2.10
2018-11-21T17:09:08.960Z,2.10
2018-11-21T17:11:38.225Z,2.10
2018-11-21T17:14:07.638Z,2.10
2018-11-21T17:16:36.959Z,2.10
2018-11-21T17:19:06.246Z,2.10
2018-11-21T17:21:36.139Z,2.00
2018-11-21T17:24:06.116Z,2.00
2018-11-21T17:26:35.417Z,2.10
2018-11-21T17:29:08.621Z,2.10
2018-11-21T17:31:33.994Z,2.10
2018-11-21T17:34:03.272Z,2.10
2018-11-21T17:36:32.740Z,2.10
2018-11-21T17:39:02.017Z,2.10
2018-11-21T17:41:31.348Z,2.10
2018-11-21T17:44:00.643Z,2.10
2018-11-21T17:46:29.943Z,2.10
2018-11-21T17:48:59.206Z,2.10
2018-11-21T17:51:28.495Z,2.10
2018-11-21T17:53:57.755Z,2.10
2018-11-21T17:56:27.040Z,2.10
2018-11-21T17:58:56.308Z,2.00
2018-11-21T18:01:25.602Z,2.10
2018-11-21T18:03:54.863Z,2.10
2018-11-21T18:06:24.143Z,2.10
2018-11-21T18:08:53.410Z,2.00
2018-11-21T18:11:22.705Z,2.00
2018-11-21T18:13:51.976Z,2.00
2018-11-21T18:16:21.301Z,2.00
2018-11-21T18:18:51.498Z,2.10
2018-11-21T18:21:20.812Z,2.10
2018-11-21T18:23:50.065Z,2.00
2018-11-21T18:26:19.355Z,2.10
2018-11-21T18:28:48.633Z,2.10
2018-11-21T18:31:17.924Z,2.30
2018-11-21T18:33:47.189Z,2.30
2018-11-21T18:36:16.554Z,2.20
2018-11-21T18:38:45.836Z,2.30
2018-11-21T18:41:15.160Z,2.20
2018-11-21T18:43:44.460Z,2.20
2018-11-21T18:46:13.776Z,2.30
2018-11-21T18:48:43.013Z,2.10
2018-11-21T18:51:12.338Z,2.20
2018-11-21T18:53:41.596Z,2.00
2018-11-21T18:56:35.603Z,2.10
2018-11-21T18:59:50.346Z,2.10
2018-11-21T19:02:19.649Z,2.20
2018-11-21T19:04:49.779Z,2.30
2018-11-21T19:07:19.401Z,2.30
2018-11-21T19:09:48.716Z,2.20
2018-11-21T19:12:18.897Z,2.30
2018-11-21T19:14:48.167Z,2.10
2018-11-21T19:17:17.593Z,2.10
2018-11-21T19:19:46.987Z,2.00
2018-11-21T19:22:16.309Z,2.00
2018-11-21T19:24:45.576Z,2.00
2018-11-21T19:27:14.871Z,1.90
2018-11-21T19:29:44.255Z,2.00
2018-11-21T19:32:13.581Z,2.00
2018-11-21T19:34:42.829Z,1.90
2018-11-21T19:37:12.153Z,2.00
2018-11-21T19:39:41.453Z,2.00
2018-11-21T19:42:10.749Z,2.00
2018-11-21T19:44:40.086Z,2.00
2018-11-21T19:47:09.714Z,2.00
2018-11-21T19:49:39.018Z,2.00
2018-11-21T19:52:08.274Z,2.00
2018-11-21T19:54:37.966Z,2.00
2018-11-21T19:57:07.221Z,2.00
2018-11-21T19:59:36.555Z,2.00
2018-11-21T20:02:06.301Z,2.00
2018-11-21T20:04:35.583Z,2.00
2018-11-21T20:07:04.966Z,1.90
2018-11-21T20:09:34.296Z,1.90
2018-11-21T20:12:03.984Z,1.90
2018-11-21T20:14:33.373Z,1.90
2018-11-21T20:17:02.649Z,1.90
2018-11-21T20:19:31.947Z,2.00
2018-11-21T20:22:01.269Z,1.90
2018-11-21T20:24:30.573Z,1.90
2018-11-21T20:26:59.892Z,1.90
2018-11-21T20:29:29.189Z,1.90
2018-11-21T20:31:58.464Z,1.80
2018-11-21T20:34:27.756Z,1.80
2018-11-21T20:36:57.017Z,1.90
2018-11-21T20:39:26.335Z,1.90
2018-11-21T20:41:55.657Z,1.90
2018-11-21T20:44:24.941Z,1.90
2018-11-21T20:46:54.208Z,1.90
2018-11-21T20:49:23.487Z,1.80
2018-11-21T20:51:52.779Z,1.90
2018-11-21T20:54:22.058Z,1.90
2018-11-21T20:56:51.355Z,1.80
2018-11-21T20:59:20.654Z,1.80
2018-11-21T21:01:49.952Z,1.80
2018-11-21T21:04:19.246Z,1.90
2018-11-21T21:06:48.637Z,1.90
2018-11-21T21:09:17.946Z,1.80
2018-11-21T21:11:47.240Z,1.90
2018-11-21T21:14:16.518Z,1.80
2018-11-21T21:16:45.804Z,1.80
2018-11-21T21:19:15.058Z,1.80
2018-11-21T21:21:44.344Z,1.80
2018-11-21T21:24:13.632Z,1.80
2018-11-21T21:26:42.944Z,1.80
2018-11-21T21:29:12.236Z,1.90
2018-11-21T21:31:41.516Z,1.70
2018-11-21T21:34:10.774Z,1.80
2018-11-21T21:36:40.176Z,2.00
2018-11-21T21:39:10.914Z,2.00
2018-11-21T21:41:40.277Z,1.80
2018-11-21T21:44:09.554Z,1.80
2018-11-21T21:46:38.838Z,1.90
2018-11-21T21:49:08.089Z,1.80
2018-11-21T21:51:37.374Z,1.90
2018-11-21T21:54:06.606Z,1.90
2018-11-21T21:56:35.882Z,1.90
2018-11-21T21:59:05.359Z,1.80
2018-11-21T22:01:34.632Z,1.80
2018-11-21T22:04:04.023Z,1.80
2018-11-21T22:06:33.379Z,1.80
2018-11-21T22:09:02.621Z,1.90
2018-11-21T22:11:31.904Z,1.90
2018-11-21T22:14:01.191Z,1.80
2018-11-21T22:16:30.594Z,1.90
2018-11-21T22:18:59.847Z,1.80
2018-11-21T22:21:29.311Z,1.90
2018-11-21T22:23:59.016Z,2.00
2018-11-21T22:26:28.262Z,1.90
2018-11-21T22:28:57.546Z,2.00
2018-11-21T22:31:26.794Z,2.10
2018-11-21T22:33:56.097Z,2.10
2018-11-21T22:36:25.359Z,2.10
2018-11-21T22:38:54.651Z,1.90
2018-11-21T22:41:23.927Z,1.90
2018-11-21T22:43:53.220Z,1.90
2018-11-21T22:46:22.458Z,2.00
2018-11-21T22:48:51.793Z,2.00
2018-11-21T22:51:21.058Z,2.00
2018-11-21T22:53:50.337Z,1.90
2018-11-21T22:56:19.583Z,1.90
2018-11-21T22:58:48.884Z,1.70
2018-11-21T23:01:25.282Z,1.80
2018-11-21T23:03:54.651Z,1.90
2018-11-21T23:06:23.911Z,2.00
2018-11-21T23:08:53.215Z,2.00
2018-11-21T23:11:22.476Z,1.80
2018-11-21T23:13:51.774Z,1.70
2018-11-21T23:16:21.014Z,1.80
2018-11-21T23:18:50.304Z,1.80
2018-11-21T23:21:19.555Z,1.70
2018-11-21T23:23:48.831Z,1.80
2018-11-21T23:26:18.083Z,1.80
2018-11-21T23:28:47.366Z,1.80
2018-11-21T23:31:16.608Z,1.80
2018-11-21T23:33:45.892Z,1.70
2018-11-21T23:36:15.147Z,1.70
2018-11-21T23:38:44.426Z,1.70
2018-11-21T23:41:13.695Z,1.60
2018-11-21T23:43:42.974Z,1.80
2018-11-21T23:46:12.211Z,1.70
2018-11-21T23:48:41.484Z,1.70
2018-11-21T23:51:10.720Z,1.60
2018-11-21T23:53:40.022Z,1.60
2018-11-21T23:56:09.269Z,1.70
2018-11-21T23:58:38.539Z,1.80
